createdAt,value
2022-12-26T07:00:40.667Z,18.90
2022-12-26T07:03:08.605Z,16.90
2022-12-26T07:05:37.601Z,12.80
2022-12-26T07:08:05.891Z,15.40
2022-12-26T07:10:37.233Z,17.50
2022-12-26T07:13:05.177Z,17.60
2022-12-26T07:15:32.962Z,12.60
2022-12-26T07:18:00.717Z,18.00
2022-12-26T07:20:28.491Z,17.90
2022-12-26T07:22:56.313Z,17.80
2022-12-26T07:25:24.052Z,17.20
2022-12-26T07:27:54.788Z,13.10
2022-12-26T07:30:22.673Z,22.60
2022-12-26T07:32:50.652Z,18.00
2022-12-26T07:35:18.442Z,18.60
2022-12-26T07:37:46.264Z,18.80
2022-12-26T07:40:14.853Z,16.10
2022-12-26T07:42:42.618Z,17.50
2022-12-26T07:45:10.579Z,17.60
2022-12-26T07:47:38.455Z,21.30
2022-12-26T07:50:07.067Z,18.70
2022-12-26T07:52:34.898Z,20.30
2022-12-26T07:55:04.528Z,19.50
2022-12-26T07:57:48.645Z,23.20
2022-12-26T08:00:19.235Z,14.60
2022-12-26T08:02:51.133Z,17.80
2022-12-26T08:05:21.025Z,27.30
2022-12-26T08:07:49.388Z,17.60
2022-12-26T08:10:17.816Z,14.30
2022-12-26T08:12:45.541Z,14.20
2022-12-26T08:15:13.971Z,15.80
2022-12-26T08:17:41.920Z,15.60
2022-12-26T08:20:09.843Z,17.10
2022-12-26T08:22:37.877Z,16.20
2022-12-26T08:25:06.649Z,19.90
2022-12-26T08:27:34.500Z,17.00
2022-12-26T08:30:02.440Z,17.60
2022-12-26T08:32:30.332Z,17.70
2022-12-26T08:34:58.198Z,16.20
2022-12-26T08:37:25.972Z,22.30
2022-12-26T08:39:53.759Z,19.60
2022-12-26T08:42:22.452Z,17.70
2022-12-26T08:44:50.276Z,16.60
2022-12-26T08:47:18.275Z,21.10
2022-12-26T08:49:46.104Z,17.50
2022-12-26T08:52:13.819Z,18.70
2022-12-26T08:54:41.633Z,18.70
2022-12-26T08:57:09.805Z,17.80
2022-12-26T08:59:37.605Z,17.80
2022-12-26T09:02:05.649Z,17.70
2022-12-26T09:04:33.709Z,19.90
2022-12-26T09:07:01.593Z,15.70
2022-12-26T09:09:29.647Z,21.90
2022-12-26T09:11:57.427Z,25.30
2022-12-26T09:14:25.234Z,17.60
2022-12-26T09:16:54.700Z,20.70
2022-12-26T09:19:22.916Z,15.80
2022-12-26T09:22:14.272Z,15.10
2022-12-26T09:24:42.240Z,15.20
2022-12-26T09:27:10.418Z,16.90
2022-12-26T09:29:38.484Z,19.10
2022-12-26T09:32:06.470Z,15.60
2022-12-26T09:34:34.329Z,14.80
2022-12-26T09:37:02.233Z,20.10
2022-12-26T09:39:29.989Z,18.60
2022-12-26T09:42:03.769Z,19.20
2022-12-26T09:44:47.805Z,17.40
2022-12-26T09:47:36.445Z,18.40
2022-12-26T09:50:10.244Z,18.60
2022-12-26T09:52:55.940Z,17.10
2022-12-26T09:55:24.204Z,17.20
2022-12-26T09:57:55.685Z,20.10
2022-12-26T10:00:39.539Z,17.30
2022-12-26T10:03:10.844Z,21.10
2022-12-26T10:05:49.150Z,18.70
2022-12-26T10:08:55.829Z,15.20
2022-12-26T10:11:54.781Z,18.50
2022-12-26T10:14:44.340Z,23.90
2022-12-26T10:17:43.103Z,16.70
2022-12-26T10:20:55.099Z,19.40
2022-12-26T10:23:35.039Z,15.80
2022-12-26T10:26:21.703Z,16.90
2022-12-26T10:29:11.834Z,19.90
2022-12-26T10:34:47.331Z,22.80
2022-12-26T10:37:20.173Z,18.60
2022-12-26T10:39:52.199Z,15.00
2022-12-26T10:42:41.540Z,19.40
2022-12-26T10:45:16.580Z,18.10
2022-12-26T10:47:47.039Z,17.30
2022-12-26T10:50:26.951Z,20.60
2022-12-26T10:52:57.437Z,21.00
2022-12-26T10:55:35.627Z,17.50
2022-12-26T10:58:14.786Z,13.80
2022-12-26T11:00:42.848Z,15.70
2022-12-26T11:03:15.002Z,18.20
2022-12-26T11:09:00.943Z,14.30
2022-12-26T11:11:46.250Z,17.00
2022-12-26T11:14:42.422Z,14.80
2022-12-26T11:17:28.959Z,15.40
2022-12-26T11:20:17.088Z,15.00
2022-12-26T11:22:46.341Z,22.20
2022-12-26T11:25:17.307Z,22.90
2022-12-26T11:27:54.286Z,15.00
2022-12-26T11:30:32.600Z,18.00
2022-12-26T11:33:05.943Z,16.70
2022-12-26T11:38:40.620Z,14.80
2022-12-26T11:41:36.928Z,16.40
2022-12-26T11:44:10.874Z,15.90
2022-12-26T11:47:15.309Z,15.90
2022-12-26T11:49:51.479Z,18.60
2022-12-26T11:52:55.363Z,20.20
2022-12-26T11:55:23.246Z,14.90
2022-12-26T11:58:10.260Z,16.90
2022-12-26T12:01:02.984Z,17.20
2022-12-26T12:03:37.462Z,28.60
2022-12-26T12:06:40.662Z,27.40
2022-12-26T12:09:39.502Z,23.80
2022-12-26T12:12:35.146Z,22.00
2022-12-26T12:15:44.826Z,17.20
2022-12-26T12:18:49.081Z,16.80
2022-12-26T12:21:19.716Z,11.70
2022-12-26T12:24:02.639Z,13.10
2022-12-26T12:26:41.043Z,19.00
2022-12-26T12:29:24.398Z,13.60
2022-12-26T12:32:21.364Z,13.90
2022-12-26T12:34:59.584Z,13.50
2022-12-26T12:38:06.057Z,14.40
2022-12-26T12:40:46.897Z,15.10
2022-12-26T12:43:43.745Z,15.10
2022-12-26T12:46:45.405Z,14.40
2022-12-26T12:49:18.975Z,11.00
2022-12-26T12:52:13.045Z,13.40
2022-12-26T12:55:11.529Z,12.30
2022-12-26T12:57:39.415Z,14.80
2022-12-26T13:00:18.236Z,14.60
2022-12-26T13:03:01.765Z,13.30
2022-12-26T13:08:05.366Z,13.60
2022-12-26T13:10:38.400Z,12.60
2022-12-26T13:13:19.419Z,12.00
2022-12-26T13:15:53.062Z,12.90
2022-12-26T13:18:25.167Z,13.10
2022-12-26T13:21:00.828Z,11.50
2022-12-26T13:23:52.541Z,10.80
2022-12-26T13:26:25.641Z,13.70
2022-12-26T13:28:58.267Z,11.70
2022-12-26T13:31:31.577Z,13.40
2022-12-26T13:33:59.914Z,11.40
2022-12-26T13:36:39.419Z,13.50
2022-12-26T13:39:13.139Z,10.90
2022-12-26T13:42:19.702Z,13.10
2022-12-26T13:44:53.437Z,15.40
2022-12-26T13:47:38.193Z,13.50
2022-12-26T13:50:47.156Z,13.40
2022-12-26T13:53:30.386Z,12.40
2022-12-26T13:56:02.515Z,14.50
2022-12-26T13:58:49.073Z,15.50
2022-12-26T14:01:16.908Z,16.40
2022-12-26T14:04:03.679Z,22.90
2022-12-26T14:06:31.552Z,17.90
2022-12-26T14:09:21.439Z,14.70
2022-12-26T14:12:24.394Z,15.50
2022-12-26T14:15:13.805Z,15.00
2022-12-26T14:17:58.926Z,16.30
2022-12-26T14:20:50.352Z,15.10
2022-12-26T14:23:48.858Z,15.20
2022-12-26T14:26:35.560Z,12.60
2022-12-26T14:29:24.902Z,15.60
2022-12-26T14:32:27.510Z,10.90
2022-12-26T14:37:43.386Z,12.60
2022-12-26T14:40:37.186Z,13.70
2022-12-26T14:43:14.297Z,15.10
2022-12-26T14:45:50.922Z,13.80
2022-12-26T14:48:18.761Z,20.40
2022-12-26T14:51:04.665Z,17.70
2022-12-26T14:53:35.855Z,14.30
2022-12-26T14:56:31.638Z,13.20
2022-12-26T14:59:30.464Z,12.20
2022-12-26T15:02:03.858Z,11.00
2022-12-26T15:04:55.544Z,13.50
2022-12-26T15:07:50.347Z,14.00
2022-12-26T15:10:49.333Z,15.00
2022-12-26T15:13:34.125Z,14.30
2022-12-26T15:16:16.541Z,15.70
2022-12-26T15:19:18.780Z,11.10
2022-12-26T15:22:24.748Z,11.30
2022-12-26T15:25:18.776Z,11.10
2022-12-26T15:28:15.295Z,12.80
2022-12-26T15:31:14.689Z,13.30
2022-12-26T15:33:51.902Z,13.40
2022-12-26T15:36:40.740Z,13.50
2022-12-26T15:39:11.231Z,15.90
2022-12-26T15:42:08.839Z,11.40
2022-12-26T15:44:52.247Z,12.80
2022-12-26T15:47:32.268Z,14.10
2022-12-26T15:50:22.658Z,13.70
2022-12-26T15:53:09.575Z,12.70
2022-12-26T15:56:01.195Z,14.20
2022-12-26T15:58:44.318Z,10.40
2022-12-26T16:01:13.101Z,11.70
2022-12-26T16:03:53.871Z,11.30
2022-12-26T16:06:24.505Z,11.30
2022-12-26T16:09:08.393Z,12.70
2022-12-26T16:11:49.337Z,13.30
2022-12-26T16:14:25.693Z,12.50
2022-12-26T16:16:53.752Z,16.10
2022-12-26T16:19:27.094Z,15.30
2022-12-26T16:22:19.382Z,13.60
2022-12-26T16:24:51.514Z,13.10
2022-12-26T16:27:22.856Z,15.80
2022-12-26T16:32:44.127Z,13.20
2022-12-26T16:35:25.404Z,13.50
2022-12-26T16:37:55.727Z,12.00
2022-12-26T16:40:49.656Z,14.40
2022-12-26T16:43:34.643Z,14.10
2022-12-26T16:46:06.109Z,15.80
2022-12-26T16:48:36.263Z,13.00
2022-12-26T16:51:07.658Z,14.20
2022-12-26T16:53:35.630Z,11.10
2022-12-26T16:56:31.206Z,16.00
2022-12-26T16:59:17.651Z,15.80
2022-12-26T17:01:51.030Z,12.20
2022-12-26T17:04:24.406Z,9.70
2022-12-26T17:06:59.397Z,14.70
2022-12-26T17:09:40.407Z,14.40
2022-12-26T17:12:24.406Z,12.90
2022-12-26T17:14:54.529Z,16.90
2022-12-26T17:17:22.503Z,17.50
2022-12-26T17:19:54.353Z,16.20
2022-12-26T17:22:30.208Z,21.90
2022-12-26T17:25:17.955Z,14.70
2022-12-26T17:27:47.441Z,22.30
2022-12-26T17:30:30.306Z,20.60
2022-12-26T17:33:03.991Z,17.70
2022-12-26T17:36:06.055Z,20.10
2022-12-26T17:38:26.231Z,17.40
2022-12-26T17:40:56.648Z,17.50
2022-12-26T17:43:25.941Z,15.70
2022-12-26T17:45:53.808Z,13.40
2022-12-26T17:48:21.671Z,13.70
2022-12-26T17:50:55.257Z,15.60
2022-12-26T17:53:35.579Z,18.20
2022-12-26T17:56:05.207Z,21.40
2022-12-26T17:58:34.449Z,14.30
2022-12-26T18:01:03.026Z,18.10
2022-12-26T18:03:30.951Z,19.10
2022-12-26T18:05:59.167Z,15.60
2022-12-26T18:08:35.020Z,16.60
2022-12-26T18:11:07.390Z,19.50
2022-12-26T18:13:35.547Z,19.20
2022-12-26T18:16:04.497Z,17.30
2022-12-26T18:18:36.554Z,16.40
2022-12-26T18:21:06.605Z,17.60
2022-12-26T18:23:34.677Z,22.00
2022-12-26T18:26:06.446Z,14.80
2022-12-26T18:28:34.911Z,14.30
2022-12-26T18:31:02.757Z,19.40
2022-12-26T18:33:30.530Z,17.00
2022-12-26T18:36:01.868Z,14.60
2022-12-26T18:38:32.432Z,19.30
2022-12-26T18:41:02.346Z,16.10
2022-12-26T18:43:30.110Z,16.80
2022-12-26T18:45:57.990Z,20.00
2022-12-26T18:48:25.997Z,15.30
2022-12-26T18:50:54.528Z,17.80
2022-12-26T18:53:22.411Z,20.10
2022-12-26T18:55:50.359Z,16.90
2022-12-26T18:58:18.238Z,16.70
2022-12-26T19:00:46.127Z,17.80
2022-12-26T19:03:14.052Z,16.50
2022-12-26T19:05:41.921Z,20.80
2022-12-26T19:08:11.467Z,18.90
2022-12-26T19:10:44.421Z,15.80
2022-12-26T19:13:12.171Z,13.20
2022-12-26T19:15:46.513Z,12.90
2022-12-26T19:18:14.464Z,16.10
2022-12-26T19:20:44.566Z,18.00
2022-12-26T19:23:12.541Z,17.50
2022-12-26T19:25:40.728Z,16.30
2022-12-26T19:28:08.613Z,15.40
2022-12-26T19:30:39.060Z,13.10
2022-12-26T19:33:07.588Z,16.70
2022-12-26T19:35:35.544Z,14.80
2022-12-26T19:38:03.641Z,12.50
2022-12-26T19:40:31.710Z,14.50
2022-12-26T19:42:59.568Z,12.60
2022-12-26T19:45:27.593Z,14.20
2022-12-26T19:47:55.626Z,11.10
2022-12-26T19:50:23.576Z,11.00
2022-12-26T19:52:51.470Z,11.80
2022-12-26T19:55:19.541Z,10.70
2022-12-26T19:57:47.380Z,11.50
2022-12-26T20:00:15.567Z,13.10
2022-12-26T20:02:43.666Z,10.50
2022-12-26T20:05:12.120Z,9.10
2022-12-26T20:07:39.972Z,11.70
2022-12-26T20:10:08.552Z,11.20
2022-12-26T20:12:36.384Z,11.50
2022-12-26T20:15:04.777Z,10.30
2022-12-26T20:17:32.735Z,9.70
2022-12-26T20:20:00.736Z,10.80
2022-12-26T20:22:29.225Z,9.90
2022-12-26T20:24:57.094Z,10.30
2022-12-26T20:27:25.045Z,11.10
2022-12-26T20:29:53.225Z,10.70
2022-12-26T20:32:21.395Z,10.50
2022-12-26T20:34:49.285Z,11.30
2022-12-26T20:37:18.260Z,11.90
2022-12-26T20:39:46.208Z,11.20
2022-12-26T20:42:16.403Z,9.90
2022-12-26T20:44:44.147Z,10.60
2022-12-26T20:47:12.105Z,10.70
2022-12-26T20:49:40.030Z,7.70
2022-12-26T20:52:07.904Z,10.00
2022-12-26T20:54:35.763Z,13.80
2022-12-26T20:57:03.978Z,9.00
2022-12-26T20:59:31.807Z,9.80
2022-12-26T21:01:59.768Z,10.30
2022-12-26T21:04:27.842Z,10.40
2022-12-26T21:06:55.745Z,9.60
2022-12-26T21:09:23.782Z,11.00
2022-12-26T21:11:51.644Z,10.60
2022-12-26T21:14:22.073Z,12.40
2022-12-26T21:16:55.815Z,10.10
2022-12-26T21:19:25.613Z,8.80
2022-12-26T21:21:55.349Z,9.10
2022-12-26T21:24:27.504Z,11.20
2022-12-26T21:26:56.599Z,9.60
2022-12-26T21:29:27.920Z,11.90
2022-12-26T21:34:26.664Z,9.90
2022-12-26T21:37:13.484Z,9.90
2022-12-26T21:39:41.494Z,8.90
2022-12-26T21:42:09.452Z,8.50
2022-12-26T21:44:37.933Z,8.80
2022-12-26T21:47:08.350Z,10.90
2022-12-26T21:49:39.191Z,11.90
2022-12-26T21:52:07.866Z,8.90
2022-12-26T21:54:54.273Z,11.60
2022-12-26T21:57:22.544Z,10.30
2022-12-26T21:59:59.695Z,15.20
